sensor_id;sensor_type;location;lat;lon;timestamp;P1;durP1;ratioP1;P2;durP2;ratioP2
6342;SDS011;3204;42.698;23.298;2023-04-30T00:01:37;21.40;;;12.88;;
6342;SDS011;3204;42.698;23.298;2023-04-30T00:04:02;19.88;;;13.38;;
6342;SDS011;3204;42.698;23.298;2023-04-30T00:06:28;17.85;;;13.40;;
6342;SDS011;3204;42.698;23.298;2023-04-30T00:08:53;21.90;;;14.23;;
6342;SDS011;3204;42.698;23.298;2023-04-30T00:11:19;20.02;;;16.35;;
6342;SDS011;3204;42.698;23.298;2023-04-30T00:13:44;29.50;;;21.55;;
6342;SDS011;3204;42.698;23.298;2023-04-30T00:16:10;29.20;;;20.40;;
6342;SDS011;3204;42.698;23.298;2023-04-30T00:18:36;33.17;;;20.67;;
6342;SDS011;3204;42.698;23.298;2023-04-30T00:21:02;30.10;;;17.25;;
6342;SDS011;3204;42.698;23.298;2023-04-30T00:23:28;23.92;;;16.20;;
6342;SDS011;3204;42.698;23.298;2023-04-30T00:25:53;21.48;;;15.77;;
6342;SDS011;3204;42.698;23.298;2023-04-30T00:28:18;20.50;;;16.23;;
6342;SDS011;3204;42.698;23.298;2023-04-30T00:30:44;24.42;;;16.02;;
6342;SDS011;3204;42.698;23.298;2023-04-30T00:33:09;19.10;;;14.70;;
6342;SDS011;3204;42.698;23.298;2023-04-30T00:35:35;20.10;;;15.00;;
6342;SDS011;3204;42.698;23.298;2023-04-30T00:38:00;23.23;;;15.43;;
6342;SDS011;3204;42.698;23.298;2023-04-30T00:40:26;18.58;;;15.70;;
6342;SDS011;3204;42.698;23.298;2023-04-30T00:42:51;21.17;;;13.82;;
6342;SDS011;3204;42.698;23.298;2023-04-30T00:45:19;18.05;;;14.07;;
6342;SDS011;3204;42.698;23.298;2023-04-30T00:47:48;19.10;;;13.93;;
6342;SDS011;3204;42.698;23.298;2023-04-30T00:50:14;18.48;;;13.35;;
6342;SDS011;3204;42.698;23.298;2023-04-30T00:52:43;19.08;;;13.70;;
6342;SDS011;3204;42.698;23.298;2023-04-30T00:55:10;24.20;;;13.50;;
6342;SDS011;3204;42.698;23.298;2023-04-30T00:57:36;19.92;;;13.05;;
6342;SDS011;3204;42.698;23.298;2023-04-30T01:00:02;18.02;;;12.30;;
6342;SDS011;3204;42.698;23.298;2023-04-30T01:02:29;16.80;;;13.73;;
6342;SDS011;3204;42.698;23.298;2023-04-30T01:04:54;18.92;;;14.15;;
6342;SDS011;3204;42.698;23.298;2023-04-30T01:07:20;18.38;;;13.10;;
6342;SDS011;3204;42.698;23.298;2023-04-30T01:09:46;21.98;;;14.02;;
6342;SDS011;3204;42.698;23.298;2023-04-30T01:20:47;18.20;;;13.00;;
6342;SDS011;3204;42.698;23.298;2023-04-30T01:23:37;16.50;;;13.23;;
6342;SDS011;3204;42.698;23.298;2023-04-30T01:29:22;24.60;;;19.02;;
6342;SDS011;3204;42.698;23.298;2023-04-30T01:31:49;27.50;;;18.67;;
6342;SDS011;3204;42.698;23.298;2023-04-30T01:34:14;20.33;;;15.80;;
6342;SDS011;3204;42.698;23.298;2023-04-30T01:39:32;25.35;;;16.27;;
6342;SDS011;3204;42.698;23.298;2023-04-30T01:42:20;22.98;;;15.18;;
6342;SDS011;3204;42.698;23.298;2023-04-30T01:52:59;19.25;;;14.30;;
6342;SDS011;3204;42.698;23.298;2023-04-30T01:55:36;20.33;;;13.85;;
6342;SDS011;3204;42.698;23.298;2023-04-30T01:58:08;27.95;;;14.07;;
6342;SDS011;3204;42.698;23.298;2023-04-30T02:00:36;19.83;;;12.00;;
6342;SDS011;3204;42.698;23.298;2023-04-30T02:03:02;22.73;;;13.32;;
6342;SDS011;3204;42.698;23.298;2023-04-30T02:05:27;15.38;;;12.45;;
6342;SDS011;3204;42.698;23.298;2023-04-30T02:07:53;23.55;;;12.93;;
6342;SDS011;3204;42.698;23.298;2023-04-30T02:10:20;20.80;;;12.75;;
6342;SDS011;3204;42.698;23.298;2023-04-30T02:12:47;20.45;;;12.38;;
6342;SDS011;3204;42.698;23.298;2023-04-30T02:15:12;16.95;;;12.30;;
6342;SDS011;3204;42.698;23.298;2023-04-30T02:17:38;19.05;;;12.82;;
6342;SDS011;3204;42.698;23.298;2023-04-30T02:20:03;14.52;;;11.88;;
6342;SDS011;3204;42.698;23.298;2023-04-30T02:22:29;13.73;;;11.93;;
6342;SDS011;3204;42.698;23.298;2023-04-30T02:24:55;17.42;;;11.80;;
6342;SDS011;3204;42.698;23.298;2023-04-30T02:27:22;17.92;;;12.90;;
6342;SDS011;3204;42.698;23.298;2023-04-30T02:29:49;13.30;;;11.90;;
6342;SDS011;3204;42.698;23.298;2023-04-30T02:32:15;18.88;;;12.02;;
6342;SDS011;3204;42.698;23.298;2023-04-30T02:34:41;19.02;;;12.25;;
6342;SDS011;3204;42.698;23.298;2023-04-30T02:37:06;18.27;;;12.50;;
6342;SDS011;3204;42.698;23.298;2023-04-30T02:39:32;17.80;;;12.10;;
6342;SDS011;3204;42.698;23.298;2023-04-30T02:41:58;30.55;;;16.02;;
6342;SDS011;3204;42.698;23.298;2023-04-30T02:44:24;43.40;;;18.17;;
6342;SDS011;3204;42.698;23.298;2023-04-30T02:46:50;57.70;;;18.98;;
6342;SDS011;3204;42.698;23.298;2023-04-30T02:49:15;50.03;;;19.60;;
6342;SDS011;3204;42.698;23.298;2023-04-30T02:51:41;51.95;;;20.02;;
6342;SDS011;3204;42.698;23.298;2023-04-30T02:54:07;45.40;;;18.55;;
6342;SDS011;3204;42.698;23.298;2023-04-30T02:56:32;30.75;;;15.18;;
6342;SDS011;3204;42.698;23.298;2023-04-30T02:58:58;18.73;;;12.93;;
6342;SDS011;3204;42.698;23.298;2023-04-30T03:01:24;21.23;;;12.90;;
6342;SDS011;3204;42.698;23.298;2023-04-30T03:03:50;19.30;;;12.25;;
6342;SDS011;3204;42.698;23.298;2023-04-30T03:06:15;20.65;;;12.65;;
6342;SDS011;3204;42.698;23.298;2023-04-30T03:08:41;18.90;;;13.07;;
6342;SDS011;3204;42.698;23.298;2023-04-30T03:11:06;14.63;;;10.45;;
6342;SDS011;3204;42.698;23.298;2023-04-30T03:13:32;14.27;;;11.15;;
6342;SDS011;3204;42.698;23.298;2023-04-30T03:15:57;13.10;;;11.15;;
6342;SDS011;3204;42.698;23.298;2023-04-30T03:18:24;11.55;;;10.32;;
6342;SDS011;3204;42.698;23.298;2023-04-30T03:20:49;10.90;;;9.98;;
6342;SDS011;3204;42.698;23.298;2023-04-30T03:23:15;13.15;;;10.43;;
6342;SDS011;3204;42.698;23.298;2023-04-30T03:25:40;11.25;;;8.85;;
6342;SDS011;3204;42.698;23.298;2023-04-30T03:28:06;7.90;;;7.30;;
6342;SDS011;3204;42.698;23.298;2023-04-30T03:30:32;8.68;;;7.80;;
6342;SDS011;3204;42.698;23.298;2023-04-30T03:32:57;8.10;;;7.40;;
6342;SDS011;3204;42.698;23.298;2023-04-30T03:35:22;8.10;;;7.30;;
6342;SDS011;3204;42.698;23.298;2023-04-30T03:37:48;7.25;;;6.65;;
6342;SDS011;3204;42.698;23.298;2023-04-30T03:40:13;6.95;;;6.40;;
6342;SDS011;3204;42.698;23.298;2023-04-30T03:42:39;7.25;;;6.55;;
6342;SDS011;3204;42.698;23.298;2023-04-30T03:45:04;6.60;;;6.10;;
6342;SDS011;3204;42.698;23.298;2023-04-30T03:47:30;6.88;;;6.20;;
6342;SDS011;3204;42.698;23.298;2023-04-30T03:49:57;6.97;;;6.55;;
6342;SDS011;3204;42.698;23.298;2023-04-30T03:52:22;6.97;;;6.47;;
6342;SDS011;3204;42.698;23.298;2023-04-30T03:54:48;6.45;;;6.05;;
6342;SDS011;3204;42.698;23.298;2023-04-30T03:57:13;6.90;;;6.40;;
6342;SDS011;3204;42.698;23.298;2023-04-30T03:59:39;6.80;;;6.28;;
6342;SDS011;3204;42.698;23.298;2023-04-30T04:02:05;7.53;;;6.90;;
6342;SDS011;3204;42.698;23.298;2023-04-30T04:04:31;7.15;;;6.68;;
6342;SDS011;3204;42.698;23.298;2023-04-30T04:06:58;8.02;;;7.25;;
6342;SDS011;3204;42.698;23.298;2023-04-30T04:09:23;8.90;;;7.32;;
6342;SDS011;3204;42.698;23.298;2023-04-30T04:11:49;6.72;;;6.22;;
6342;SDS011;3204;42.698;23.298;2023-04-30T04:14:14;7.50;;;6.72;;
6342;SDS011;3204;42.698;23.298;2023-04-30T04:16:40;7.32;;;6.78;;
6342;SDS011;3204;42.698;23.298;2023-04-30T04:19:06;7.05;;;6.40;;
6342;SDS011;3204;42.698;23.298;2023-04-30T04:21:31;7.95;;;6.88;;
6342;SDS011;3204;42.698;23.298;2023-04-30T04:23:57;7.25;;;6.78;;
6342;SDS011;3204;42.698;23.298;2023-04-30T04:26:23;8.65;;;7.45;;
6342;SDS011;3204;42.698;23.298;2023-04-30T04:28:49;10.13;;;6.80;;
6342;SDS011;3204;42.698;23.298;2023-04-30T04:31:16;6.43;;;5.88;;
6342;SDS011;3204;42.698;23.298;2023-04-30T04:33:42;7.55;;;6.95;;
6342;SDS011;3204;42.698;23.298;2023-04-30T04:36:08;7.15;;;6.53;;
6342;SDS011;3204;42.698;23.298;2023-04-30T04:38:33;7.25;;;6.68;;
6342;SDS011;3204;42.698;23.298;2023-04-30T04:40:59;7.18;;;6.68;;
6342;SDS011;3204;42.698;23.298;2023-04-30T04:43:25;7.97;;;7.28;;
6342;SDS011;3204;42.698;23.298;2023-04-30T04:45:50;7.45;;;6.95;;
6342;SDS011;3204;42.698;23.298;2023-04-30T04:48:16;8.07;;;7.53;;
6342;SDS011;3204;42.698;23.298;2023-04-30T04:50:41;7.03;;;6.68;;
6342;SDS011;3204;42.698;23.298;2023-04-30T04:53:07;7.72;;;7.22;;
6342;SDS011;3204;42.698;23.298;2023-04-30T04:55:32;8.20;;;6.60;;
6342;SDS011;3204;42.698;23.298;2023-04-30T04:57:58;6.65;;;6.25;;
6342;SDS011;3204;42.698;23.298;2023-04-30T05:00:23;7.18;;;6.57;;
6342;SDS011;3204;42.698;23.298;2023-04-30T05:02:49;7.35;;;6.50;;
6342;SDS011;3204;42.698;23.298;2023-04-30T05:05:15;7.07;;;6.57;;
6342;SDS011;3204;42.698;23.298;2023-04-30T05:07:41;8.10;;;6.78;;
6342;SDS011;3204;42.698;23.298;2023-04-30T05:10:07;6.93;;;6.32;;
6342;SDS011;3204;42.698;23.298;2023-04-30T05:12:32;9.32;;;7.43;;
6342;SDS011;3204;42.698;23.298;2023-04-30T05:14:58;9.90;;;7.30;;
6342;SDS011;3204;42.698;23.298;2023-04-30T05:17:23;7.88;;;7.28;;
6342;SDS011;3204;42.698;23.298;2023-04-30T05:19:49;10.18;;;7.00;;
6342;SDS011;3204;42.698;23.298;2023-04-30T05:22:15;8.13;;;7.50;;
6342;SDS011;3204;42.698;23.298;2023-04-30T05:24:40;8.20;;;7.40;;
6342;SDS011;3204;42.698;23.298;2023-04-30T05:27:06;7.95;;;7.28;;
6342;SDS011;3204;42.698;23.298;2023-04-30T05:29:32;8.75;;;7.88;;
6342;SDS011;3204;42.698;23.298;2023-04-30T05:31:57;9.95;;;7.47;;
6342;SDS011;3204;42.698;23.298;2023-04-30T05:34:23;8.50;;;7.68;;
6342;SDS011;3204;42.698;23.298;2023-04-30T05:36:49;8.45;;;7.68;;
6342;SDS011;3204;42.698;23.298;2023-04-30T05:39:14;9.70;;;8.63;;
6342;SDS011;3204;42.698;23.298;2023-04-30T05:41:40;9.18;;;7.78;;
6342;SDS011;3204;42.698;23.298;2023-04-30T05:44:05;9.75;;;8.73;;
6342;SDS011;3204;42.698;23.298;2023-04-30T05:46:31;11.50;;;9.25;;
6342;SDS011;3204;42.698;23.298;2023-04-30T05:48:57;9.88;;;8.98;;
6342;SDS011;3204;42.698;23.298;2023-04-30T05:51:22;10.90;;;8.93;;
6342;SDS011;3204;42.698;23.298;2023-04-30T05:53:48;9.98;;;9.05;;
6342;SDS011;3204;42.698;23.298;2023-04-30T05:56:13;10.60;;;9.60;;
6342;SDS011;3204;42.698;23.298;2023-04-30T05:58:39;10.20;;;9.23;;
6342;SDS011;3204;42.698;23.298;2023-04-30T06:01:04;10.25;;;9.30;;
6342;SDS011;3204;42.698;23.298;2023-04-30T06:03:30;11.63;;;10.25;;
6342;SDS011;3204;42.698;23.298;2023-04-30T06:05:55;10.45;;;9.57;;
6342;SDS011;3204;42.698;23.298;2023-04-30T06:08:21;11.23;;;10.23;;
6342;SDS011;3204;42.698;23.298;2023-04-30T06:10:46;10.63;;;9.68;;
6342;SDS011;3204;42.698;23.298;2023-04-30T06:13:12;11.52;;;9.43;;
6342;SDS011;3204;42.698;23.298;2023-04-30T06:15:38;9.80;;;8.82;;
6342;SDS011;3204;42.698;23.298;2023-04-30T06:18:05;10.02;;;9.15;;
6342;SDS011;3204;42.698;23.298;2023-04-30T06:20:31;11.02;;;10.02;;
6342;SDS011;3204;42.698;23.298;2023-04-30T06:22:56;14.68;;;9.55;;
6342;SDS011;3204;42.698;23.298;2023-04-30T06:25:22;11.43;;;9.82;;
6342;SDS011;3204;42.698;23.298;2023-04-30T06:27:47;11.48;;;10.38;;
6342;SDS011;3204;42.698;23.298;2023-04-30T06:30:13;12.52;;;10.50;;
6342;SDS011;3204;42.698;23.298;2023-04-30T06:32:39;12.25;;;10.23;;
6342;SDS011;3204;42.698;23.298;2023-04-30T06:35:05;11.38;;;10.15;;
6342;SDS011;3204;42.698;23.298;2023-04-30T06:37:31;10.20;;;9.18;;
6342;SDS011;3204;42.698;23.298;2023-04-30T06:40:01;10.85;;;9.25;;
6342;SDS011;3204;42.698;23.298;2023-04-30T06:42:30;14.77;;;9.43;;
6342;SDS011;3204;42.698;23.298;2023-04-30T06:44:59;9.88;;;9.18;;
6342;SDS011;3204;42.698;23.298;2023-04-30T06:47:28;10.52;;;9.55;;
6342;SDS011;3204;42.698;23.298;2023-04-30T06:49:58;9.93;;;9.13;;
6342;SDS011;3204;42.698;23.298;2023-04-30T06:52:24;12.63;;;9.55;;
6342;SDS011;3204;42.698;23.298;2023-04-30T06:54:50;15.40;;;9.27;;
6342;SDS011;3204;42.698;23.298;2023-04-30T06:57:16;11.13;;;10.00;;
6342;SDS011;3204;42.698;23.298;2023-04-30T06:59:41;12.15;;;10.65;;
6342;SDS011;3204;42.698;23.298;2023-04-30T07:02:07;12.02;;;10.82;;
6342;SDS011;3204;42.698;23.298;2023-04-30T07:04:32;12.40;;;11.07;;
6342;SDS011;3204;42.698;23.298;2023-04-30T07:06:57;11.40;;;10.10;;
6342;SDS011;3204;42.698;23.298;2023-04-30T07:09:26;12.52;;;10.80;;
6342;SDS011;3204;42.698;23.298;2023-04-30T07:11:54;14.90;;;9.85;;
6342;SDS011;3204;42.698;23.298;2023-04-30T07:14:20;13.25;;;10.35;;
6342;SDS011;3204;42.698;23.298;2023-04-30T07:16:45;12.50;;;10.25;;
6342;SDS011;3204;42.698;23.298;2023-04-30T07:19:14;11.45;;;10.27;;
6342;SDS011;3204;42.698;23.298;2023-04-30T07:21:39;12.18;;;11.00;;
6342;SDS011;3204;42.698;23.298;2023-04-30T07:24:05;11.73;;;9.98;;
6342;SDS011;3204;42.698;23.298;2023-04-30T07:26:30;11.48;;;10.38;;
6342;SDS011;3204;42.698;23.298;2023-04-30T07:28:56;12.57;;;10.95;;
6342;SDS011;3204;42.698;23.298;2023-04-30T07:31:21;12.40;;;10.90;;
6342;SDS011;3204;42.698;23.298;2023-04-30T07:33:47;17.00;;;10.05;;
6342;SDS011;3204;42.698;23.298;2023-04-30T07:36:14;11.45;;;10.35;;
6342;SDS011;3204;42.698;23.298;2023-04-30T07:38:40;16.00;;;10.30;;
6342;SDS011;3204;42.698;23.298;2023-04-30T07:41:06;12.32;;;9.88;;
6342;SDS011;3204;42.698;23.298;2023-04-30T07:43:33;15.68;;;10.30;;
6342;SDS011;3204;42.698;23.298;2023-04-30T07:45:59;13.75;;;9.38;;
6342;SDS011;3204;42.698;23.298;2023-04-30T07:48:25;9.75;;;8.75;;
6342;SDS011;3204;42.698;23.298;2023-04-30T07:50:50;10.02;;;8.95;;
6342;SDS011;3204;42.698;23.298;2023-04-30T07:53:16;10.30;;;7.80;;
6342;SDS011;3204;42.698;23.298;2023-04-30T07:55:41;8.63;;;7.97;;
6342;SDS011;3204;42.698;23.298;2023-04-30T07:58:07;9.05;;;8.02;;
6342;SDS011;3204;42.698;23.298;2023-04-30T08:00:32;8.98;;;6.60;;
6342;SDS011;3204;42.698;23.298;2023-04-30T08:02:58;7.13;;;6.43;;
6342;SDS011;3204;42.698;23.298;2023-04-30T08:05:24;6.25;;;5.75;;
6342;SDS011;3204;42.698;23.298;2023-04-30T08:07:51;7.05;;;6.00;;
6342;SDS011;3204;42.698;23.298;2023-04-30T08:10:17;6.95;;;6.07;;
6342;SDS011;3204;42.698;23.298;2023-04-30T08:12:42;6.85;;;6.20;;
6342;SDS011;3204;42.698;23.298;2023-04-30T08:15:08;6.75;;;6.25;;
6342;SDS011;3204;42.698;23.298;2023-04-30T08:17:34;6.47;;;5.55;;
6342;SDS011;3204;42.698;23.298;2023-04-30T08:20:00;7.03;;;6.35;;
6342;SDS011;3204;42.698;23.298;2023-04-30T08:22:27;8.35;;;7.20;;
6342;SDS011;3204;42.698;23.298;2023-04-30T08:24:52;5.95;;;5.35;;
6342;SDS011;3204;42.698;23.298;2023-04-30T08:27:19;6.00;;;5.47;;
6342;SDS011;3204;42.698;23.298;2023-04-30T08:29:46;6.15;;;5.65;;
6342;SDS011;3204;42.698;23.298;2023-04-30T08:32:11;5.90;;;5.40;;
6342;SDS011;3204;42.698;23.298;2023-04-30T08:34:37;7.07;;;5.13;;
6342;SDS011;3204;42.698;23.298;2023-04-30T08:37:05;6.07;;;5.68;;
6342;SDS011;3204;42.698;23.298;2023-04-30T08:39:30;6.85;;;6.28;;
6342;SDS011;3204;42.698;23.298;2023-04-30T08:41:56;5.53;;;5.10;;
6342;SDS011;3204;42.698;23.298;2023-04-30T08:44:26;8.48;;;5.38;;
6342;SDS011;3204;42.698;23.298;2023-04-30T08:46:52;5.07;;;4.68;;
6342;SDS011;3204;42.698;23.298;2023-04-30T08:49:22;5.97;;;5.43;;
6342;SDS011;3204;42.698;23.298;2023-04-30T08:51:49;5.32;;;4.82;;
6342;SDS011;3204;42.698;23.298;2023-04-30T08:54:15;5.15;;;4.68;;
6342;SDS011;3204;42.698;23.298;2023-04-30T08:56:42;5.53;;;5.05;;
6342;SDS011;3204;42.698;23.298;2023-04-30T08:59:11;5.93;;;5.43;;
6342;SDS011;3204;42.698;23.298;2023-04-30T09:01:37;5.22;;;4.70;;
6342;SDS011;3204;42.698;23.298;2023-04-30T09:04:03;5.65;;;5.35;;
6342;SDS011;3204;42.698;23.298;2023-04-30T09:06:30;4.85;;;4.63;;
6342;SDS011;3204;42.698;23.298;2023-04-30T09:08:55;5.30;;;5.00;;
6342;SDS011;3204;42.698;23.298;2023-04-30T09:13:51;6.80;;;4.72;;
6342;SDS011;3204;42.698;23.298;2023-04-30T09:16:19;6.03;;;4.25;;
6342;SDS011;3204;42.698;23.298;2023-04-30T09:18:45;5.00;;;4.60;;
6342;SDS011;3204;42.698;23.298;2023-04-30T09:21:12;4.60;;;4.30;;
6342;SDS011;3204;42.698;23.298;2023-04-30T09:23:47;5.05;;;4.75;;
6342;SDS011;3204;42.698;23.298;2023-04-30T09:26:25;15.93;;;6.28;;
6342;SDS011;3204;42.698;23.298;2023-04-30T09:28:53;4.95;;;4.72;;
6342;SDS011;3204;42.698;23.298;2023-04-30T09:31:20;4.47;;;4.18;;
6342;SDS011;3204;42.698;23.298;2023-04-30T09:33:46;3.42;;;3.22;;
6342;SDS011;3204;42.698;23.298;2023-04-30T09:36:11;4.25;;;3.75;;
6342;SDS011;3204;42.698;23.298;2023-04-30T09:38:37;4.32;;;4.05;;
6342;SDS011;3204;42.698;23.298;2023-04-30T09:41:03;4.47;;;4.18;;
6342;SDS011;3204;42.698;23.298;2023-04-30T09:43:29;4.32;;;4.03;;
6342;SDS011;3204;42.698;23.298;2023-04-30T09:45:56;4.78;;;4.47;;
6342;SDS011;3204;42.698;23.298;2023-04-30T09:48:23;4.82;;;4.53;;
6342;SDS011;3204;42.698;23.298;2023-04-30T09:50:51;5.63;;;4.88;;
6342;SDS011;3204;42.698;23.298;2023-04-30T09:53:17;5.07;;;4.72;;
6342;SDS011;3204;42.698;23.298;2023-04-30T09:55:47;4.47;;;4.28;;
6342;SDS011;3204;42.698;23.298;2023-04-30T09:58:14;4.63;;;4.22;;
6342;SDS011;3204;42.698;23.298;2023-04-30T10:00:41;4.47;;;4.18;;
6342;SDS011;3204;42.698;23.298;2023-04-30T10:03:08;4.25;;;4.00;;
6342;SDS011;3204;42.698;23.298;2023-04-30T10:08:27;4.15;;;3.85;;
6342;SDS011;3204;42.698;23.298;2023-04-30T10:11:00;10.90;;;3.72;;
6342;SDS011;3204;42.698;23.298;2023-04-30T10:13:31;5.32;;;3.97;;
6342;SDS011;3204;42.698;23.298;2023-04-30T10:16:36;3.75;;;3.55;;
6342;SDS011;3204;42.698;23.298;2023-04-30T10:19:14;4.60;;;4.20;;
6342;SDS011;3204;42.698;23.298;2023-04-30T10:21:44;4.45;;;4.15;;
6342;SDS011;3204;42.698;23.298;2023-04-30T10:24:15;9.55;;;4.13;;
6342;SDS011;3204;42.698;23.298;2023-04-30T10:26:43;11.00;;;4.80;;
6342;SDS011;3204;42.698;23.298;2023-04-30T10:29:09;6.10;;;4.53;;
6342;SDS011;3204;42.698;23.298;2023-04-30T10:31:37;5.13;;;4.60;;
6342;SDS011;3204;42.698;23.298;2023-04-30T10:34:51;6.00;;;5.50;;
6342;SDS011;3204;42.698;23.298;2023-04-30T10:37:13;6.40;;;5.90;;
6342;SDS011;3204;42.698;23.298;2023-04-30T10:39:45;7.50;;;6.95;;
6342;SDS011;3204;42.698;23.298;2023-04-30T10:42:11;6.00;;;5.40;;
6342;SDS011;3204;42.698;23.298;2023-04-30T10:44:37;6.97;;;6.15;;
6342;SDS011;3204;42.698;23.298;2023-04-30T10:47:04;6.35;;;5.78;;
6342;SDS011;3204;42.698;23.298;2023-04-30T10:49:30;4.75;;;4.40;;
6342;SDS011;3204;42.698;23.298;2023-04-30T10:52:00;4.85;;;3.83;;
6342;SDS011;3204;42.698;23.298;2023-04-30T10:54:28;4.47;;;4.10;;
6342;SDS011;3204;42.698;23.298;2023-04-30T10:57:13;4.35;;;4.05;;
6342;SDS011;3204;42.698;23.298;2023-04-30T11:02:42;5.43;;;5.03;;
6342;SDS011;3204;42.698;23.298;2023-04-30T11:05:12;5.05;;;4.55;;
6342;SDS011;3204;42.698;23.298;2023-04-30T11:07:48;3.83;;;3.63;;
6342;SDS011;3204;42.698;23.298;2023-04-30T11:10:15;3.35;;;3.15;;
6342;SDS011;3204;42.698;23.298;2023-04-30T11:12:48;3.70;;;3.50;;
6342;SDS011;3204;42.698;23.298;2023-04-30T11:15:16;4.22;;;4.03;;
6342;SDS011;3204;42.698;23.298;2023-04-30T11:17:43;4.80;;;4.50;;
6342;SDS011;3204;42.698;23.298;2023-04-30T11:20:13;4.20;;;4.00;;
6342;SDS011;3204;42.698;23.298;2023-04-30T11:22:43;6.88;;;3.88;;
6342;SDS011;3204;42.698;23.298;2023-04-30T11:25:10;4.38;;;3.80;;
6342;SDS011;3204;42.698;23.298;2023-04-30T11:27:42;4.20;;;3.90;;
6342;SDS011;3204;42.698;23.298;2023-04-30T11:30:12;4.10;;;3.80;;
6342;SDS011;3204;42.698;23.298;2023-04-30T11:32:40;4.38;;;4.05;;
6342;SDS011;3204;42.698;23.298;2023-04-30T11:35:08;5.20;;;3.92;;
6342;SDS011;3204;42.698;23.298;2023-04-30T11:40:02;3.58;;;3.33;;
6342;SDS011;3204;42.698;23.298;2023-04-30T11:42:29;4.07;;;3.65;;
6342;SDS011;3204;42.698;23.298;2023-04-30T11:45:01;4.15;;;3.95;;
6342;SDS011;3204;42.698;23.298;2023-04-30T11:50:15;3.80;;;3.53;;
6342;SDS011;3204;42.698;23.298;2023-04-30T11:52:43;4.20;;;4.00;;
6342;SDS011;3204;42.698;23.298;2023-04-30T11:55:14;3.90;;;3.60;;
6342;SDS011;3204;42.698;23.298;2023-04-30T11:57:41;3.90;;;3.70;;
6342;SDS011;3204;42.698;23.298;2023-04-30T12:00:15;4.50;;;4.13;;
6342;SDS011;3204;42.698;23.298;2023-04-30T12:02:43;4.10;;;3.90;;
6342;SDS011;3204;42.698;23.298;2023-04-30T12:05:17;4.13;;;3.92;;
6342;SDS011;3204;42.698;23.298;2023-04-30T12:07:48;4.38;;;4.07;;
6342;SDS011;3204;42.698;23.298;2023-04-30T12:10:15;5.10;;;4.80;;
6342;SDS011;3204;42.698;23.298;2023-04-30T12:12:42;4.68;;;4.38;;
6342;SDS011;3204;42.698;23.298;2023-04-30T12:15:12;4.72;;;4.47;;
6342;SDS011;3204;42.698;23.298;2023-04-30T12:17:43;4.72;;;4.53;;
6342;SDS011;3204;42.698;23.298;2023-04-30T12:20:10;5.18;;;4.78;;
6342;SDS011;3204;42.698;23.298;2023-04-30T12:22:39;4.10;;;3.90;;
6342;SDS011;3204;42.698;23.298;2023-04-30T12:25:06;4.47;;;4.03;;
6342;SDS011;3204;42.698;23.298;2023-04-30T12:27:34;4.30;;;4.10;;
6342;SDS011;3204;42.698;23.298;2023-04-30T12:30:01;4.40;;;4.10;;
6342;SDS011;3204;42.698;23.298;2023-04-30T12:32:28;3.88;;;3.67;;
6342;SDS011;3204;42.698;23.298;2023-04-30T12:34:56;4.07;;;3.90;;
6342;SDS011;3204;42.698;23.298;2023-04-30T12:37:25;4.85;;;4.45;;
6342;SDS011;3204;42.698;23.298;2023-04-30T12:39:50;4.28;;;4.03;;
6342;SDS011;3204;42.698;23.298;2023-04-30T12:42:19;4.60;;;4.30;;
6342;SDS011;3204;42.698;23.298;2023-04-30T12:44:45;4.10;;;3.90;;
6342;SDS011;3204;42.698;23.298;2023-04-30T12:47:11;3.80;;;3.60;;
6342;SDS011;3204;42.698;23.298;2023-04-30T12:49:38;4.05;;;3.85;;
6342;SDS011;3204;42.698;23.298;2023-04-30T12:52:04;4.30;;;4.05;;
6342;SDS011;3204;42.698;23.298;2023-04-30T12:54:35;4.30;;;3.90;;
6342;SDS011;3204;42.698;23.298;2023-04-30T12:59:29;4.82;;;4.53;;
6342;SDS011;3204;42.698;23.298;2023-04-30T13:02:11;5.00;;;4.07;;
6342;SDS011;3204;42.698;23.298;2023-04-30T13:04:42;5.57;;;4.95;;
6342;SDS011;3204;42.698;23.298;2023-04-30T13:07:08;4.80;;;4.45;;
6342;SDS011;3204;42.698;23.298;2023-04-30T13:09:34;4.80;;;4.43;;
6342;SDS011;3204;42.698;23.298;2023-04-30T13:12:00;14.13;;;13.32;;
6342;SDS011;3204;42.698;23.298;2023-04-30T13:14:26;4.90;;;4.50;;
6342;SDS011;3204;42.698;23.298;2023-04-30T13:16:51;4.90;;;4.70;;
6342;SDS011;3204;42.698;23.298;2023-04-30T13:19:17;3.97;;;3.72;;
6342;SDS011;3204;42.698;23.298;2023-04-30T13:21:43;4.18;;;3.90;;
6342;SDS011;3204;42.698;23.298;2023-04-30T13:24:09;4.72;;;4.25;;
6342;SDS011;3204;42.698;23.298;2023-04-30T13:26:34;4.55;;;4.13;;
6342;SDS011;3204;42.698;23.298;2023-04-30T13:29:00;3.83;;;3.55;;
6342;SDS011;3204;42.698;23.298;2023-04-30T13:31:26;6.00;;;4.40;;
6342;SDS011;3204;42.698;23.298;2023-04-30T13:33:51;4.93;;;4.28;;
6342;SDS011;3204;42.698;23.298;2023-04-30T13:36:18;4.05;;;3.85;;
6342;SDS011;3204;42.698;23.298;2023-04-30T13:38:44;4.33;;;4.03;;
6342;SDS011;3204;42.698;23.298;2023-04-30T13:41:10;3.90;;;3.70;;
6342;SDS011;3204;42.698;23.298;2023-04-30T13:43:36;4.32;;;4.13;;
6342;SDS011;3204;42.698;23.298;2023-04-30T13:46:03;4.00;;;3.70;;
6342;SDS011;3204;42.698;23.298;2023-04-30T13:48:28;4.25;;;3.92;;
6342;SDS011;3204;42.698;23.298;2023-04-30T13:50:54;3.60;;;3.40;;
6342;SDS011;3204;42.698;23.298;2023-04-30T13:53:19;3.70;;;3.50;;
6342;SDS011;3204;42.698;23.298;2023-04-30T13:55:45;3.72;;;3.58;;
6342;SDS011;3204;42.698;23.298;2023-04-30T13:58:11;3.80;;;3.60;;
6342;SDS011;3204;42.698;23.298;2023-04-30T14:00:37;4.20;;;3.90;;
6342;SDS011;3204;42.698;23.298;2023-04-30T14:03:02;3.58;;;3.38;;
6342;SDS011;3204;42.698;23.298;2023-04-30T14:05:28;4.07;;;3.83;;
6342;SDS011;3204;42.698;23.298;2023-04-30T14:07:54;4.88;;;4.47;;
6342;SDS011;3204;42.698;23.298;2023-04-30T14:10:19;4.35;;;4.15;;
6342;SDS011;3204;42.698;23.298;2023-04-30T14:12:45;4.68;;;4.43;;
6342;SDS011;3204;42.698;23.298;2023-04-30T14:15:10;3.45;;;3.25;;
6342;SDS011;3204;42.698;23.298;2023-04-30T14:17:36;3.72;;;3.03;;
6342;SDS011;3204;42.698;23.298;2023-04-30T14:20:01;3.55;;;3.40;;
6342;SDS011;3204;42.698;23.298;2023-04-30T14:22:28;3.40;;;3.20;;
6342;SDS011;3204;42.698;23.298;2023-04-30T14:24:53;3.78;;;3.58;;
6342;SDS011;3204;42.698;23.298;2023-04-30T14:27:19;6.25;;;3.65;;
6342;SDS011;3204;42.698;23.298;2023-04-30T14:29:45;3.60;;;3.30;;
6342;SDS011;3204;42.698;23.298;2023-04-30T14:32:11;4.60;;;4.20;;
6342;SDS011;3204;42.698;23.298;2023-04-30T14:34:38;3.83;;;3.60;;
6342;SDS011;3204;42.698;23.298;2023-04-30T14:37:03;5.30;;;5.00;;
6342;SDS011;3204;42.698;23.298;2023-04-30T14:39:29;3.70;;;3.50;;
6342;SDS011;3204;42.698;23.298;2023-04-30T14:41:55;3.57;;;3.30;;
6342;SDS011;3204;42.698;23.298;2023-04-30T14:44:21;3.90;;;3.70;;
6342;SDS011;3204;42.698;23.298;2023-04-30T14:46:50;4.00;;;3.80;;
6342;SDS011;3204;42.698;23.298;2023-04-30T14:49:16;3.70;;;3.50;;
6342;SDS011;3204;42.698;23.298;2023-04-30T14:51:41;3.95;;;3.70;;
6342;SDS011;3204;42.698;23.298;2023-04-30T14:54:07;4.78;;;3.80;;
6342;SDS011;3204;42.698;23.298;2023-04-30T14:56:33;3.72;;;3.53;;
6342;SDS011;3204;42.698;23.298;2023-04-30T14:58:58;3.88;;;3.58;;
6342;SDS011;3204;42.698;23.298;2023-04-30T15:01:24;3.53;;;3.33;;
6342;SDS011;3204;42.698;23.298;2023-04-30T15:03:49;3.40;;;3.20;;
6342;SDS011;3204;42.698;23.298;2023-04-30T15:06:15;3.47;;;3.33;;
6342;SDS011;3204;42.698;23.298;2023-04-30T15:08:41;3.78;;;3.58;;
6342;SDS011;3204;42.698;23.298;2023-04-30T15:11:06;3.97;;;3.67;;
6342;SDS011;3204;42.698;23.298;2023-04-30T15:13:33;4.05;;;3.70;;
6342;SDS011;3204;42.698;23.298;2023-04-30T15:15:59;4.38;;;4.03;;
6342;SDS011;3204;42.698;23.298;2023-04-30T15:18:25;4.30;;;3.95;;
6342;SDS011;3204;42.698;23.298;2023-04-30T15:20:50;4.03;;;3.83;;
6342;SDS011;3204;42.698;23.298;2023-04-30T15:23:16;5.00;;;4.57;;
6342;SDS011;3204;42.698;23.298;2023-04-30T15:25:41;5.85;;;3.75;;
6342;SDS011;3204;42.698;23.298;2023-04-30T15:28:08;4.82;;;4.40;;
6342;SDS011;3204;42.698;23.298;2023-04-30T15:30:34;5.15;;;4.80;;